Time;durP1;ratioP1;P1;durP2;ratioP2;P2;SDS_P1;SDS_P2;PMS_P1;PMS_P2;Temp;Humidity;BMP_temperature;BMP_pressure;BME280_temperature;BME280_humidity;BME280_pressure;Samples;Min_cycle;Max_cycle;Signal;HPM_P1;HPM_P2
2023/08/06 00:00:21;;;;;;;20.97;19.37;;;16.00;99.90;;;;;;5042018;28;20790;-52
2023/08/06 00:02:48;;;;;;;20.67;19.07;;;16.00;99.90;;;;;;5039257;28;20211;-50
2023/08/06 00:05:17;;;;;;;19.60;18.27;;;16.00;99.90;;;;;;5040926;28;20470;-46
2023/08/06 00:07:46;;;;;;;20.53;19.03;;;16.00;99.90;;;;;;5040028;28;20432;-47
2023/08/06 00:10:12;;;;;;;19.30;17.90;;;16.00;99.90;;;;;;5040823;28;20473;-51
2023/08/06 00:12:38;;;;;;;20.40;18.57;;;16.10;99.90;;;;;;5040296;28;20432;-50
2023/08/06 00:15:03;;;;;;;21.03;19.33;;;16.00;99.90;;;;;;5041705;28;20198;-51
2023/08/06 00:17:29;;;;;;;19.53;18.23;;;16.00;99.90;;;;;;5040129;28;20186;-47
2023/08/06 00:19:55;;;;;;;20.10;18.70;;;16.00;99.90;;;;;;5041151;28;20264;-48
2023/08/06 00:22:20;;;;;;;20.00;18.60;;;16.00;99.90;;;;;;5040754;28;20248;-49
2023/08/06 00:24:46;;;;;;;20.30;18.90;;;16.00;99.90;;;;;;5040903;28;20762;-50
2023/08/06 00:27:11;;;;;;;19.53;18.03;;;16.00;99.90;;;;;;5040928;28;20173;-50
2023/08/06 00:29:37;;;;;;;20.33;18.53;;;16.00;99.90;;;;;;5041153;28;20236;-52
2023/08/06 00:32:03;;;;;;;19.33;17.87;;;16.00;99.90;;;;;;5040988;28;20178;-53
2023/08/06 00:34:28;;;;;;;20.70;19.10;;;16.00;99.90;;;;;;5040088;28;20197;-52
2023/08/06 00:36:54;;;;;;;19.30;17.90;;;16.00;99.90;;;;;;5041242;28;20193;-53
2023/08/06 00:39:19;;;;;;;20.37;18.87;;;15.90;99.90;;;;;;5040412;28;20193;-51
2023/08/06 00:41:45;;;;;;;20.03;18.50;;;15.90;99.90;;;;;;5040751;28;20220;-54
2023/08/06 00:44:11;;;;;;;19.00;17.60;;;15.90;99.90;;;;;;5039599;28;20717;-54
2023/08/06 00:46:36;;;;;;;20.63;19.10;;;15.80;99.90;;;;;;5040059;28;20539;-46
2023/08/06 00:49:03;;;;;;;19.73;18.23;;;15.80;99.90;;;;;;5040450;28;20173;-51
2023/08/06 00:51:28;;;;;;;19.73;18.23;;;15.80;99.90;;;;;;5040707;28;20193;-48
2023/08/06 00:53:55;;;;;;;20.30;18.80;;;15.80;99.90;;;;;;5041118;28;20909;-51
2023/08/06 00:56:21;;;;;;;20.50;18.80;;;15.80;99.90;;;;;;5039783;28;20716;-50
2023/08/06 00:58:47;;;;;;;19.00;17.70;;;15.80;99.90;;;;;;5039696;28;20420;-51
2023/08/06 01:01:12;;;;;;;19.90;18.50;;;15.80;99.90;;;;;;5039726;28;20190;-51
2023/08/06 01:03:38;;;;;;;21.60;20.00;;;15.90;99.90;;;;;;5040168;28;20460;-54
2023/08/06 01:06:04;;;;;;;19.80;18.30;;;15.90;99.90;;;;;;5039504;28;20190;-53
2023/08/06 01:08:57;;;;;;;20.30;18.80;;;15.90;99.90;;;;;;5040172;28;20659;-51
2023/08/06 01:11:41;;;;;;;20.07;18.67;;;15.90;99.90;;;;;;5040517;28;20416;-50
2023/08/06 01:14:11;;;;;;;20.47;18.87;;;15.90;99.90;;;;;;5039538;28;20440;-50
2023/08/06 01:16:39;;;;;;;20.63;19.03;;;15.90;99.90;;;;;;5039883;28;20423;-50
2023/08/06 01:19:15;;;;;;;18.90;17.50;;;15.90;99.90;;;;;;5039441;28;20439;-50
2023/08/06 01:21:40;;;;;;;19.53;18.13;;;15.90;99.90;;;;;;5040080;28;20941;-52
2023/08/06 01:24:06;;;;;;;19.60;18.20;;;15.90;99.90;;;;;;5039300;28;20476;-45
2023/08/06 01:26:44;;;;;;;18.50;17.20;;;15.90;99.90;;;;;;5038968;28;20178;-52
2023/08/06 01:29:19;;;;;;;19.13;17.73;;;15.90;99.90;;;;;;5038908;28;20217;-52
2023/08/06 01:31:49;;;;;;;18.37;17.17;;;15.80;99.90;;;;;;5039261;28;20937;-52
2023/08/06 01:34:22;;;;;;;20.20;18.80;;;15.80;99.90;;;;;;5038440;28;20432;-52
2023/08/06 01:36:48;;;;;;;18.60;17.10;;;15.80;99.90;;;;;;5039311;28;20456;-52
2023/08/06 01:39:14;;;;;;;19.17;17.67;;;15.80;99.90;;;;;;5038930;28;20451;-52
2023/08/06 01:41:39;;;;;;;19.37;17.97;;;15.80;99.90;;;;;;5038198;28;20444;-47
2023/08/06 01:44:05;;;;;;;19.30;18.00;;;15.80;99.90;;;;;;5039033;28;20209;-53
2023/08/06 01:46:31;;;;;;;19.60;18.10;;;15.80;99.90;;;;;;5038887;28;20234;-50
2023/08/06 01:48:56;;;;;;;20.07;18.57;;;15.80;99.90;;;;;;5038378;28;20185;-50
2023/08/06 01:51:22;;;;;;;19.67;18.07;;;15.80;99.90;;;;;;5037778;28;20174;-50
2023/08/06 01:53:47;;;;;;;20.10;18.60;;;15.70;99.90;;;;;;5038125;28;20235;-53
2023/08/06 01:56:13;;;;;;;20.33;18.73;;;15.70;99.90;;;;;;5039184;28;20182;-49
2023/08/06 01:58:39;;;;;;;21.00;19.30;;;15.60;99.90;;;;;;5040153;28;20185;-48
2023/08/06 02:01:05;;;;;;;20.17;18.60;;;15.60;99.90;;;;;;5038140;28;20272;-50
2023/08/06 02:03:30;;;;;;;20.00;18.50;;;15.60;99.90;;;;;;5019057;28;20806;-48
2023/08/06 02:05:56;;;;;;;20.93;19.13;;;15.60;99.90;;;;;;5038057;28;20185;-52
2023/08/06 02:08:21;;;;;;;20.73;19.23;;;15.50;99.90;;;;;;5037628;28;20193;-48
2023/08/06 02:10:47;;;;;;;19.83;18.27;;;15.50;99.90;;;;;;5038339;28;20181;-53
2023/08/06 02:13:13;;;;;;;20.13;18.60;;;15.50;99.90;;;;;;5038444;28;21339;-49
2023/08/06 02:15:47;;;;;;;19.20;17.80;;;15.50;99.90;;;;;;5038441;28;20737;-50
2023/08/06 02:18:14;;;;;;;19.00;17.50;;;15.60;99.90;;;;;;5038954;28;20655;-52
2023/08/06 02:20:40;;;;;;;19.40;17.90;;;15.60;99.90;;;;;;5038394;28;20984;-51
2023/08/06 02:23:05;;;;;;;19.63;18.23;;;15.60;99.90;;;;;;5039284;28;20424;-50
2023/08/06 02:25:31;;;;;;;19.63;18.23;;;15.60;99.90;;;;;;5013060;28;20329;-50
2023/08/06 02:27:57;;;;;;;19.63;18.13;;;15.70;99.90;;;;;;5038742;28;20655;-53
2023/08/06 02:30:22;;;;;;;20.33;18.73;;;15.70;99.90;;;;;;5019603;28;20227;-44
2023/08/06 02:32:48;;;;;;;20.33;18.77;;;15.80;99.90;;;;;;5038224;28;20430;-47
2023/08/06 02:35:13;;;;;;;19.87;18.47;;;15.80;99.90;;;;;;5037428;28;20194;-48
2023/08/06 02:37:39;;;;;;;20.77;19.17;;;15.80;99.90;;;;;;5038537;28;20331;-51
2023/08/06 02:40:05;;;;;;;20.50;18.90;;;15.80;99.90;;;;;;5038729;28;20205;-50
2023/08/06 02:42:31;;;;;;;21.23;19.73;;;15.80;99.90;;;;;;5037341;28;20273;-52
2023/08/06 02:44:56;;;;;;;20.70;19.20;;;15.80;99.90;;;;;;5037834;28;20861;-48
2023/08/06 02:47:22;;;;;;;21.80;20.00;;;15.90;99.90;;;;;;5038447;28;20190;-48
2023/08/06 02:49:47;;;;;;;21.13;19.60;;;15.90;99.90;;;;;;5038309;28;20188;-50
2023/08/06 02:52:13;;;;;;;21.43;19.83;;;15.90;99.90;;;;;;5039408;28;20209;-48
2023/08/06 02:54:39;;;;;;;21.63;20.00;;;15.90;99.90;;;;;;5039071;28;20720;-47
2023/08/06 02:57:05;;;;;;;21.20;19.60;;;15.90;99.90;;;;;;5020410;28;20254;-52
2023/08/06 02:59:31;;;;;;;20.80;19.20;;;15.90;99.90;;;;;;5038511;28;20185;-52
2023/08/06 03:01:57;;;;;;;21.73;20.03;;;15.90;99.90;;;;;;5038835;28;20836;-50
2023/08/06 03:04:23;;;;;;;21.20;19.50;;;15.90;99.90;;;;;;5038835;28;20472;-53
2023/08/06 03:06:51;;;;;;;22.13;20.53;;;15.90;99.90;;;;;;5038727;28;20206;-47
2023/08/06 03:09:18;;;;;;;20.83;19.23;;;15.90;99.90;;;;;;5037943;28;20432;-49
2023/08/06 03:11:43;;;;;;;22.53;20.77;;;15.90;99.90;;;;;;5039204;28;20469;-48
2023/08/06 03:14:09;;;;;;;21.33;19.73;;;15.90;99.90;;;;;;5037049;28;20939;-51
2023/08/06 03:16:35;;;;;;;21.43;19.80;;;16.00;99.90;;;;;;5038642;28;20252;-50
2023/08/06 03:19:01;;;;;;;21.60;19.80;;;16.00;99.90;;;;;;5038838;28;20185;-44
2023/08/06 03:21:26;;;;;;;21.50;19.80;;;16.00;99.90;;;;;;5021826;28;20517;-49
2023/08/06 03:23:52;;;;;;;21.50;19.60;;;16.00;99.90;;;;;;5042230;28;20230;-51
2023/08/06 03:26:17;;;;;;;21.17;19.33;;;16.00;99.90;;;;;;5041242;28;20648;-52
2023/08/06 03:28:43;;;;;;;21.33;19.63;;;16.00;99.90;;;;;;5042026;28;20179;-50
2023/08/06 03:31:09;;;;;;;21.17;19.57;;;16.00;99.90;;;;;;5042465;28;20720;-48
2023/08/06 03:33:34;;;;;;;19.40;17.90;;;16.00;99.90;;;;;;5024168;28;20470;-50
2023/08/06 03:36:00;;;;;;;20.37;18.67;;;16.00;99.90;;;;;;5042139;28;20230;-49
2023/08/06 03:38:26;;;;;;;21.20;19.53;;;16.00;99.90;;;;;;5041989;28;20254;-49
2023/08/06 03:40:51;;;;;;;22.07;20.30;;;16.00;99.90;;;;;;5041796;28;20798;-50
2023/08/06 03:43:17;;;;;;;21.50;19.90;;;16.00;99.90;;;;;;5041108;28;20273;-51
2023/08/06 03:45:43;;;;;;;20.13;18.60;;;16.00;99.90;;;;;;5041288;28;20356;-55
2023/08/06 03:48:09;;;;;;;20.33;18.63;;;16.00;99.90;;;;;;5042016;28;20182;-50
2023/08/06 03:50:35;;;;;;;20.97;19.33;;;15.90;99.90;;;;;;5040381;28;20213;-49
2023/08/06 03:53:00;;;;;;;20.50;18.80;;;15.90;99.90;;;;;;5041107;28;20479;-48
2023/08/06 03:55:26;;;;;;;21.00;19.30;;;15.90;99.90;;;;;;5040616;28;20526;-49
2023/08/06 03:57:52;;;;;;;20.23;18.70;;;15.90;99.90;;;;;;5023632;28;20174;-49
2023/08/06 04:00:18;;;;;;;21.50;19.90;;;15.90;99.90;;;;;;5041360;28;20194;-48
2023/08/06 04:02:43;;;;;;;21.00;19.40;;;15.90;99.90;;;;;;5040719;28;20497;-56
2023/08/06 04:05:09;;;;;;;21.43;19.83;;;15.90;99.90;;;;;;5040603;28;20472;-55
2023/08/06 04:07:35;;;;;;;19.23;17.93;;;15.90;99.90;;;;;;5018493;28;20192;-48
2023/08/06 04:10:03;;;;;;;20.80;19.30;;;15.90;99.90;;;;;;5040209;28;20243;-48
2023/08/06 04:12:28;;;;;;;21.90;20.20;;;15.90;99.90;;;;;;5054818;28;20784;-51
2023/08/06 04:14:55;;;;;;;21.43;19.93;;;15.90;99.90;;;;;;5040939;28;20423;-50
2023/08/06 04:17:21;;;;;;;21.60;19.97;;;15.90;99.90;;;;;;5041059;28;20186;-50
2023/08/06 04:19:50;;;;;;;21.33;19.83;;;15.90;99.90;;;;;;5040924;28;20466;-47
2023/08/06 04:22:16;;;;;;;21.23;19.43;;;16.00;99.90;;;;;;5041046;28;20431;-50
2023/08/06 04:24:43;;;;;;;21.83;20.23;;;16.00;99.90;;;;;;5040931;28;20480;-46
2023/08/06 04:27:09;;;;;;;21.90;20.30;;;15.90;99.90;;;;;;5041024;28;20178;-53
2023/08/06 04:29:35;;;;;;;21.70;20.17;;;16.00;99.90;;;;;;5041375;28;20938;-51
2023/08/06 04:32:00;;;;;;;21.70;20.00;;;15.90;99.90;;;;;;5040453;28;20423;-50
2023/08/06 04:34:26;;;;;;;21.17;19.67;;;16.00;99.90;;;;;;5039794;28;20182;-50
2023/08/06 04:36:52;;;;;;;20.93;19.43;;;16.00;99.90;;;;;;5041141;28;20186;-44
2023/08/06 04:39:17;;;;;;;20.60;19.00;;;16.00;99.90;;;;;;5041407;28;20240;-46
2023/08/06 04:41:43;;;;;;;20.20;18.83;;;16.00;99.90;;;;;;5039899;28;20307;-46
2023/08/06 04:44:08;;;;;;;20.03;18.73;;;16.00;99.90;;;;;;5040759;28;20608;-47
2023/08/06 04:46:34;;;;;;;20.17;18.67;;;16.00;99.90;;;;;;5041298;28;20178;-52
2023/08/06 04:49:00;;;;;;;20.80;19.40;;;16.00;99.90;;;;;;5041010;28;20961;-47
2023/08/06 04:51:25;;;;;;;19.53;18.23;;;16.00;99.90;;;;;;5039674;28;20185;-50
2023/08/06 04:53:51;;;;;;;19.53;18.23;;;16.00;99.90;;;;;;5040519;28;20178;-50
2023/08/06 04:56:16;;;;;;;18.87;17.67;;;16.00;99.90;;;;;;5040441;28;20649;-52
2023/08/06 04:58:42;;;;;;;19.47;18.17;;;16.00;99.90;;;;;;5040365;28;20189;-52
2023/08/06 05:01:08;;;;;;;18.93;17.70;;;16.10;99.90;;;;;;5038569;28;20178;-51
2023/08/06 05:03:33;;;;;;;18.67;17.50;;;16.00;99.90;;;;;;5022211;28;20197;-50
2023/08/06 05:05:59;;;;;;;18.33;17.20;;;16.00;99.90;;;;;;5040270;28;20181;-51
2023/08/06 05:08:24;;;;;;;18.77;17.40;;;16.00;99.90;;;;;;5040877;28;20196;-51
2023/08/06 05:10:50;;;;;;;19.00;17.80;;;16.10;99.90;;;;;;5039580;28;20771;-47
2023/08/06 05:13:15;;;;;;;17.70;16.60;;;16.00;99.90;;;;;;5040441;28;20603;-45
2023/08/06 05:15:42;;;;;;;18.70;17.40;;;16.10;99.90;;;;;;5039856;28;20201;-48
2023/08/06 05:18:08;;;;;;;19.67;18.40;;;16.00;99.90;;;;;;5040247;28;20185;-49
2023/08/06 05:20:38;;;;;;;19.00;17.60;;;16.00;99.90;;;;;;5040154;28;20424;-49
2023/08/06 05:23:04;;;;;;;18.40;17.30;;;16.00;99.90;;;;;;5040094;28;20439;-50
2023/08/06 05:25:30;;;;;;;19.20;18.00;;;16.00;99.90;;;;;;5038958;28;21052;-52
2023/08/06 05:27:55;;;;;;;19.17;17.90;;;16.10;99.90;;;;;;5039024;28;20196;-52
2023/08/06 05:30:21;;;;;;;19.90;18.50;;;16.10;99.90;;;;;;5039690;28;20416;-48
2023/08/06 05:32:47;;;;;;;19.80;18.50;;;16.20;99.90;;;;;;5039914;28;20257;-49
2023/08/06 05:35:12;;;;;;;19.57;18.37;;;16.20;99.90;;;;;;5021811;28;20280;-51
2023/08/06 05:37:38;;;;;;;18.03;16.90;;;16.20;99.90;;;;;;5039820;28;20182;-45
2023/08/06 05:40:04;;;;;;;19.63;18.23;;;16.30;99.90;;;;;;5021720;28;20221;-49
2023/08/06 05:42:30;;;;;;;20.50;19.10;;;16.30;99.90;;;;;;5039657;28;20189;-50
2023/08/06 05:44:55;;;;;;;18.53;17.30;;;16.30;99.90;;;;;;5038016;28;20858;-50
2023/08/06 05:47:21;;;;;;;19.07;17.90;;;16.40;99.90;;;;;;5039643;28;20232;-52
2023/08/06 05:49:47;;;;;;;18.97;17.77;;;16.30;99.90;;;;;;5039744;28;20612;-47
2023/08/06 05:52:12;;;;;;;19.20;17.80;;;16.40;99.90;;;;;;5039846;28;20404;-48
2023/08/06 05:54:38;;;;;;;18.53;17.43;;;16.40;99.90;;;;;;5038862;28;20679;-48
2023/08/06 05:57:04;;;;;;;18.70;17.60;;;16.40;99.90;;;;;;5038715;28;20185;-51
2023/08/06 05:59:30;;;;;;;18.63;17.53;;;16.40;99.90;;;;;;5039690;28;20215;-53
2023/08/06 06:01:55;;;;;;;18.90;17.80;;;16.40;99.90;;;;;;5039404;28;20516;-50
2023/08/06 06:04:21;;;;;;;19.47;18.27;;;16.40;99.90;;;;;;5038365;28;20267;-49
2023/08/06 06:06:47;;;;;;;19.60;18.37;;;16.40;99.90;;;;;;5038377;28;20186;-49
2023/08/06 06:09:12;;;;;;;19.10;17.80;;;16.40;99.90;;;;;;5039258;28;20208;-53
2023/08/06 06:11:38;;;;;;;19.10;17.90;;;16.40;99.90;;;;;;5038131;28;20177;-43
2023/08/06 06:14:03;;;;;;;19.87;18.57;;;16.40;99.90;;;;;;5039129;28;20224;-46
2023/08/06 06:16:29;;;;;;;19.17;17.97;;;16.50;99.90;;;;;;5037576;28;20739;-44
2023/08/06 06:18:55;;;;;;;19.30;18.03;;;16.50;99.90;;;;;;5038609;28;20228;-44
2023/08/06 06:21:21;;;;;;;19.23;17.83;;;16.50;99.90;;;;;;5037764;28;20184;-43
2023/08/06 06:23:46;;;;;;;20.30;18.90;;;16.60;99.90;;;;;;5036729;28;20828;-48
2023/08/06 06:26:13;;;;;;;19.63;18.13;;;16.60;99.90;;;;;;5038704;28;20224;-46
2023/08/06 06:28:39;;;;;;;19.30;18.00;;;16.70;99.90;;;;;;5019983;28;20186;-42
2023/08/06 06:31:04;;;;;;;19.93;18.60;;;16.70;99.90;;;;;;5038413;28;20433;-42
2023/08/06 06:33:30;;;;;;;20.43;18.87;;;16.80;99.90;;;;;;5038261;28;20412;-42
2023/08/06 06:35:55;;;;;;;20.67;19.27;;;16.80;99.90;;;;;;5037381;28;20220;-50
2023/08/06 06:38:21;;;;;;;19.50;18.20;;;16.90;99.90;;;;;;5037352;28;20186;-43
2023/08/06 06:40:56;;;;;;;19.90;18.30;;;16.90;99.90;;;;;;5037493;28;20234;-45
2023/08/06 06:43:22;;;;;;;20.23;18.80;;;16.90;99.90;;;;;;5036271;28;20192;-46
2023/08/06 06:45:57;;;;;;;18.43;17.23;;;17.00;99.90;;;;;;5035698;28;20551;-43
2023/08/06 06:48:22;;;;;;;19.90;18.60;;;17.00;99.90;;;;;;5037491;28;20538;-45
2023/08/06 06:50:48;;;;;;;19.07;17.77;;;17.00;99.90;;;;;;5038526;28;20422;-45
2023/08/06 06:53:14;;;;;;;18.30;17.10;;;17.10;99.90;;;;;;5038496;28;20180;-45
2023/08/06 06:55:40;;;;;;;19.10;17.80;;;17.20;99.90;;;;;;5037886;28;20185;-47
2023/08/06 06:58:05;;;;;;;18.70;17.50;;;17.30;99.90;;;;;;5024283;28;20824;-45
2023/08/06 07:00:31;;;;;;;17.80;16.70;;;17.30;99.90;;;;;;5042317;28;20186;-45
2023/08/06 07:02:56;;;;;;;17.03;16.03;;;17.30;99.90;;;;;;5042506;28;20213;-43
2023/08/06 07:05:22;;;;;;;17.80;16.70;;;17.30;99.90;;;;;;5042207;28;20201;-44
2023/08/06 07:07:48;;;;;;;17.33;16.23;;;17.30;99.90;;;;;;5041365;28;20174;-45
2023/08/06 07:10:13;;;;;;;18.10;16.90;;;17.40;99.90;;;;;;5042559;28;20269;-43
2023/08/06 07:12:39;;;;;;;18.13;17.07;;;17.40;99.90;;;;;;5041761;28;20227;-44
2023/08/06 07:15:06;;;;;;;17.83;16.73;;;17.40;99.90;;;;;;5040793;28;20228;-45
2023/08/06 07:17:32;;;;;;;17.37;16.37;;;17.50;99.90;;;;;;5040640;28;20410;-45
2023/08/06 07:19:58;;;;;;;17.90;16.80;;;17.50;99.90;;;;;;5042722;28;20439;-49
2023/08/06 07:22:23;;;;;;;19.03;17.77;;;17.60;99.90;;;;;;5041208;28;20579;-41
2023/08/06 07:24:49;;;;;;;18.30;17.20;;;17.50;99.90;;;;;;5040940;28;20561;-43
2023/08/06 07:27:15;;;;;;;18.23;17.13;;;17.60;99.90;;;;;;5040452;28;20544;-47
2023/08/06 07:29:40;;;;;;;18.87;17.67;;;17.70;99.90;;;;;;5041499;28;20186;-49
2023/08/06 07:32:07;;;;;;;18.03;16.97;;;17.80;99.90;;;;;;5041296;28;20185;-53
2023/08/06 07:34:32;;;;;;;18.40;17.30;;;17.80;99.90;;;;;;5037511;28;20181;-49
2023/08/06 07:36:58;;;;;;;18.87;17.67;;;17.90;99.90;;;;;;5040421;28;21041;-51
2023/08/06 07:39:24;;;;;;;18.10;17.00;;;18.00;99.90;;;;;;5041447;28;20185;-53
2023/08/06 07:41:50;;;;;;;19.23;17.90;;;18.00;99.90;;;;;;5017589;28;20198;-49
2023/08/06 07:44:15;;;;;;;19.57;18.37;;;18.00;99.90;;;;;;5040008;28;20576;-54
2023/08/06 07:46:41;;;;;;;20.17;18.77;;;18.00;99.90;;;;;;5041065;28;20174;-51
2023/08/06 07:49:07;;;;;;;19.47;18.17;;;18.00;99.90;;;;;;5041241;28;20614;-50
2023/08/06 07:51:32;;;;;;;20.00;18.80;;;17.90;99.90;;;;;;5038703;28;20264;-53
2023/08/06 07:53:58;;;;;;;19.10;18.00;;;17.90;99.90;;;;;;5040767;28;20640;-49
2023/08/06 07:56:24;;;;;;;20.90;19.40;;;17.90;99.90;;;;;;5040286;28;20185;-50
2023/08/06 07:58:49;;;;;;;20.07;18.83;;;17.90;99.90;;;;;;5040602;28;20671;-44
2023/08/06 08:01:15;;;;;;;20.60;19.00;;;17.90;99.90;;;;;;5040424;28;20632;-44
2023/08/06 08:03:40;;;;;;;19.30;18.10;;;17.80;99.90;;;;;;5038405;28;20186;-47
2023/08/06 08:06:06;;;;;;;18.83;17.63;;;17.70;99.90;;;;;;5028204;28;20423;-42
2023/08/06 08:08:32;;;;;;;19.83;18.63;;;17.70;99.90;;;;;;5039576;28;20440;-44
2023/08/06 08:10:58;;;;;;;20.53;19.27;;;17.50;99.90;;;;;;5039422;28;20193;-43
2023/08/06 08:13:24;;;;;;;20.03;18.73;;;17.40;99.90;;;;;;5038882;28;20182;-44
2023/08/06 08:15:50;;;;;;;19.73;18.53;;;17.40;99.90;;;;;;5039213;28;20440;-41
2023/08/06 08:18:15;;;;;;;20.33;19.03;;;17.40;99.90;;;;;;5040895;28;20229;-43
2023/08/06 08:20:41;;;;;;;20.60;19.30;;;17.40;99.90;;;;;;5040343;28;20189;-47
2023/08/06 08:23:07;;;;;;;19.23;18.13;;;17.30;99.90;;;;;;5040376;28;20192;-44
2023/08/06 08:25:34;;;;;;;19.00;17.90;;;17.20;99.90;;;;;;5038487;28;20465;-46
2023/08/06 08:27:59;;;;;;;18.30;17.20;;;17.20;99.90;;;;;;5040961;28;20228;-42
2023/08/06 08:30:25;;;;;;;19.90;18.70;;;17.20;99.90;;;;;;5039317;28;20444;-41
2023/08/06 08:32:51;;;;;;;20.50;19.10;;;17.20;99.90;;;;;;5039852;28;20186;-47
2023/08/06 08:35:16;;;;;;;18.80;17.60;;;17.10;99.90;;;;;;5019944;28;20204;-43
2023/08/06 08:37:43;;;;;;;19.80;18.50;;;17.10;99.90;;;;;;5040096;28;20186;-45
2023/08/06 08:40:10;;;;;;;19.33;18.13;;;17.00;99.90;;;;;;5041236;28;20197;-42
2023/08/06 08:42:36;;;;;;;18.13;17.07;;;17.10;99.90;;;;;;5040597;28;20543;-44
2023/08/06 08:45:10;;;;;;;19.27;18.00;;;17.20;99.90;;;;;;5041117;28;20518;-42
2023/08/06 08:47:36;;;;;;;18.40;17.40;;;17.30;99.90;;;;;;5040497;28;20522;-43
2023/08/06 08:50:04;;;;;;;18.63;17.53;;;17.40;99.90;;;;;;5038672;28;20489;-42
2023/08/06 08:52:31;;;;;;;18.60;17.57;;;17.40;99.90;;;;;;5020932;28;20440;-44
2023/08/06 08:54:59;;;;;;;18.60;17.60;;;17.30;99.90;;;;;;5041028;28;20424;-46
2023/08/06 08:57:24;;;;;;;18.37;17.20;;;17.10;99.90;;;;;;5038905;28;21623;-44
2023/08/06 08:59:50;;;;;;;17.37;16.47;;;17.10;99.90;;;;;;5039486;28;20432;-47
2023/08/06 09:02:17;;;;;;;17.17;16.27;;;16.80;99.90;;;;;;5039262;28;20556;-45
2023/08/06 09:04:44;;;;;;;17.27;16.27;;;16.80;99.90;;;;;;5039396;28;20747;-43
2023/08/06 09:07:16;;;;;;;17.13;16.23;;;16.90;99.90;;;;;;5038394;28;20425;-41
2023/08/06 09:09:43;;;;;;;16.00;15.20;;;16.90;99.90;;;;;;5040204;28;20444;-44
2023/08/06 09:12:16;;;;;;;16.53;15.63;;;17.10;99.90;;;;;;5037665;28;20532;-42
2023/08/06 09:14:42;;;;;;;17.00;16.10;;;17.10;99.90;;;;;;5040874;28;21170;-43
2023/08/06 09:17:10;;;;;;;17.23;16.33;;;17.20;99.90;;;;;;5040482;28;20451;-42
2023/08/06 09:19:36;;;;;;;15.20;14.50;;;17.40;99.90;;;;;;5039335;28;20459;-41
2023/08/06 09:22:02;;;;;;;16.87;15.97;;;17.60;99.90;;;;;;5040343;28;20416;-44
2023/08/06 09:24:28;;;;;;;17.43;16.53;;;17.70;99.90;;;;;;5038017;28;20494;-48
2023/08/06 09:26:54;;;;;;;16.90;16.00;;;17.80;99.90;;;;;;5038940;28;20424;-45
2023/08/06 09:29:20;;;;;;;16.23;15.40;;;17.90;99.90;;;;;;5035710;28;20177;-44
2023/08/06 09:31:53;;;;;;;17.63;16.73;;;17.90;99.90;;;;;;5037883;28;20511;-42
2023/08/06 09:34:21;;;;;;;16.77;15.90;;;17.80;99.90;;;;;;5037883;28;20470;-44
2023/08/06 09:36:52;;;;;;;16.90;16.03;;;17.80;99.90;;;;;;5037262;28;20420;-45
2023/08/06 09:39:26;;;;;;;16.70;15.80;;;17.80;99.90;;;;;;5037044;28;20445;-42
2023/08/06 09:41:58;;;;;;;17.30;16.30;;;17.70;99.90;;;;;;5018644;28;21260;-43
2023/08/06 09:44:26;;;;;;;16.50;15.60;;;17.80;99.90;;;;;;5010468;28;20471;-41
2023/08/06 09:46:53;;;;;;;16.53;15.60;;;17.80;99.90;;;;;;5037481;28;20404;-44
2023/08/06 09:49:20;;;;;;;17.20;16.30;;;17.70;99.90;;;;;;5037899;28;20428;-41
2023/08/06 09:51:50;;;;;;;17.70;16.70;;;17.70;99.90;;;;;;5038410;28;20436;-42
2023/08/06 09:54:18;;;;;;;16.77;15.87;;;17.70;99.90;;;;;;5039937;28;20973;-41
2023/08/06 09:56:44;;;;;;;16.77;15.77;;;17.80;99.90;;;;;;5039489;28;20929;-42
2023/08/06 09:59:11;;;;;;;16.87;15.97;;;17.80;99.90;;;;;;5038459;28;20490;-42
2023/08/06 10:01:37;;;;;;;16.60;15.70;;;17.80;99.90;;;;;;5037819;28;20566;-41
2023/08/06 10:04:11;;;;;;;15.73;14.93;;;17.80;99.90;;;;;;5038154;28;20468;-41
2023/08/06 10:06:37;;;;;;;15.60;14.73;;;17.90;99.90;;;;;;5038419;28;21485;-42
2023/08/06 10:09:04;;;;;;;16.07;15.07;;;17.90;99.90;;;;;;5038984;28;20420;-42
2023/08/06 10:11:30;;;;;;;15.00;14.20;;;18.00;99.90;;;;;;5039301;28;20232;-42
2023/08/06 10:14:12;;;;;;;14.80;14.00;;;18.10;99.90;;;;;;5039410;28;20815;-48
2023/08/06 10:16:39;;;;;;;14.60;13.80;;;18.20;99.90;;;;;;5037408;28;20454;-52
2023/08/06 10:19:07;;;;;;;15.60;14.70;;;18.30;99.90;;;;;;5033403;28;20638;-53
2023/08/06 10:21:32;;;;;;;14.87;14.03;;;18.40;99.90;;;;;;5016694;28;20428;-55
2023/08/06 10:23:58;;;;;;;14.23;13.43;;;18.50;99.90;;;;;;5038149;28;20486;-53
2023/08/06 10:26:28;;;;;;;14.60;13.80;;;18.70;99.90;;;;;;5038911;28;20570;-48
2023/08/06 10:28:54;;;;;;;14.53;13.83;;;18.70;99.90;;;;;;5018596;28;20185;-56
2023/08/06 10:31:19;;;;;;;13.93;13.23;;;18.80;99.90;;;;;;5038474;28;20497;-53
2023/08/06 10:33:47;;;;;;;14.03;13.23;;;18.80;99.90;;;;;;5022175;28;20361;-55
2023/08/06 10:36:13;;;;;;;14.60;13.80;;;19.00;99.90;;;;;;5039799;28;20189;-51
2023/08/06 10:38:49;;;;;;;14.30;13.60;;;19.10;99.90;;;;;;5042369;28;20926;-47
2023/08/06 10:41:23;;;;;;;14.27;13.57;;;19.20;99.90;;;;;;5041667;28;20434;-53
2023/08/06 10:43:49;;;;;;;13.73;13.13;;;19.50;99.90;;;;;;5041857;28;20862;-57
2023/08/06 10:46:28;;;;;;;13.90;13.20;;;19.70;99.90;;;;;;5020557;28;20440;-55
2023/08/06 10:48:54;;;;;;;14.43;13.73;;;19.70;99.90;;;;;;5042183;28;20404;-58
2023/08/06 10:51:19;;;;;;;14.23;13.53;;;20.00;99.90;;;;;;5039663;28;20431;-51
2023/08/06 10:53:48;;;;;;;13.67;12.97;;;20.20;99.90;;;;;;5041338;28;20454;-48
2023/08/06 10:56:15;;;;;;;14.23;13.43;;;20.30;99.90;;;;;;5039400;28;20316;-52
2023/08/06 10:58:42;;;;;;;13.80;13.10;;;20.50;99.90;;;;;;5038761;28;20517;-50
2023/08/06 11:01:08;;;;;;;14.90;14.10;;;20.50;99.90;;;;;;5041120;28;20937;-51
2023/08/06 11:03:34;;;;;;;12.90;12.30;;;20.50;99.90;;;;;;5042393;28;20447;-55
2023/08/06 11:06:00;;;;;;;13.90;13.20;;;20.50;99.90;;;;;;5038620;28;20463;-50
2023/08/06 11:08:26;;;;;;;13.80;13.10;;;20.60;99.90;;;;;;5041426;28;20193;-55
2023/08/06 11:10:52;;;;;;;13.77;12.70;;;20.50;99.90;;;;;;5041220;28;20789;-53
2023/08/06 11:13:18;;;;;;;13.70;13.00;;;20.50;99.90;;;;;;5041985;28;20450;-56
2023/08/06 11:15:45;;;;;;;14.07;13.37;;;20.30;99.90;;;;;;5039304;28;20182;-54
2023/08/06 11:18:10;;;;;;;13.67;12.87;;;20.30;99.90;;;;;;5042107;28;20801;-53
2023/08/06 11:20:36;;;;;;;14.80;14.00;;;20.20;99.90;;;;;;5039420;28;20450;-52
2023/08/06 11:23:03;;;;;;;14.90;14.00;;;20.30;99.90;;;;;;5041082;28;20182;-52
2023/08/06 11:25:29;;;;;;;13.53;12.83;;;20.30;99.90;;;;;;5037137;28;20475;-54
2023/08/06 11:27:54;;;;;;;14.20;13.30;;;20.20;99.90;;;;;;5039076;28;20454;-53
2023/08/06 11:30:20;;;;;;;13.80;13.20;;;20.20;99.90;;;;;;5039450;28;20515;-53
2023/08/06 11:32:47;;;;;;;13.33;12.73;;;20.30;99.90;;;;;;5039980;28;20186;-54
2023/08/06 11:35:13;;;;;;;14.30;13.40;;;20.30;99.90;;;;;;5039846;28;20209;-56
2023/08/06 11:37:43;;;;;;;14.07;13.37;;;20.50;99.90;;;;;;5039661;28;21277;-51
2023/08/06 11:40:10;;;;;;;14.20;13.50;;;20.60;99.90;;;;;;5039035;28;20609;-47
2023/08/06 11:42:36;;;;;;;13.07;12.47;;;20.60;99.90;;;;;;5038717;28;20505;-50
2023/08/06 11:45:04;;;;;;;14.10;13.40;;;20.70;99.90;;;;;;5022496;28;20472;-52
2023/08/06 11:47:30;;;;;;;13.80;13.10;;;20.70;99.90;;;;;;5039403;28;20269;-56
2023/08/06 11:49:56;;;;;;;13.77;13.07;;;20.80;99.90;;;;;;5039184;28;20443;-54
2023/08/06 11:52:26;;;;;;;13.80;13.10;;;20.70;99.90;;;;;;5040526;28;20424;-52
2023/08/06 11:55:10;;;;;;;13.37;12.77;;;20.90;99.90;;;;;;5037730;28;20868;-54
2023/08/06 11:57:42;;;;;;;13.83;13.13;;;20.90;99.90;;;;;;5039017;28;20465;-58
2023/08/06 12:00:10;;;;;;;14.33;13.53;;;20.90;99.90;;;;;;5039336;28;20444;-57
2023/08/06 12:02:38;;;;;;;12.67;12.07;;;21.00;99.90;;;;;;5038753;28;20502;-56
2023/08/06 12:05:11;;;;;;;13.87;13.10;;;20.90;99.90;;;;;;5038508;28;20472;-54
2023/08/06 12:07:39;;;;;;;14.60;13.90;;;21.00;99.90;;;;;;5037999;28;20447;-54
2023/08/06 12:10:05;;;;;;;14.33;13.63;;;21.00;99.90;;;;;;5039096;28;20440;-55
2023/08/06 12:12:31;;;;;;;14.67;13.97;;;21.00;99.90;;;;;;5033891;28;20703;-52
2023/08/06 12:14:56;;;;;;;14.50;13.80;;;21.00;99.90;;;;;;5039748;28;20919;-56
2023/08/06 12:17:24;;;;;;;15.00;14.20;;;21.00;99.90;;;;;;5020176;28;20565;-56
2023/08/06 12:19:50;;;;;;;14.70;14.00;;;21.00;99.90;;;;;;5040412;28;20656;-55
2023/08/06 12:22:16;;;;;;;14.47;13.70;;;21.00;99.90;;;;;;5040318;28;20423;-57